sensor_id;sensor_type;location;lat;lon;timestamp;P1;durP1;ratioP1;P2;durP2;ratioP2
5085;SDS011;4715;51.660;7.082;2022-10-13T00:00:54;5.83;;;5.23;;
5085;SDS011;4715;51.660;7.082;2022-10-13T00:03:16;5.17;;;4.67;;
5085;SDS011;4715;51.660;7.082;2022-10-13T00:05:39;6.47;;;5.87;;
5085;SDS011;4715;51.660;7.082;2022-10-13T00:08:03;5.37;;;4.87;;
5085;SDS011;4715;51.660;7.082;2022-10-13T00:10:25;6.47;;;5.83;;
5085;SDS011;4715;51.660;7.082;2022-10-13T00:12:48;4.90;;;4.40;;
5085;SDS011;4715;51.660;7.082;2022-10-13T00:15:10;6.00;;;5.33;;
5085;SDS011;4715;51.660;7.082;2022-10-13T00:17:32;5.60;;;5.10;;
5085;SDS011;4715;51.660;7.082;2022-10-13T00:19:55;5.53;;;4.80;;
5085;SDS011;4715;51.660;7.082;2022-10-13T00:22:17;5.33;;;4.40;;
5085;SDS011;4715;51.660;7.082;2022-10-13T00:24:40;5.40;;;4.90;;
5085;SDS011;4715;51.660;7.082;2022-10-13T00:27:02;5.07;;;4.67;;
5085;SDS011;4715;51.660;7.082;2022-10-13T00:29:24;4.30;;;4.00;;
5085;SDS011;4715;51.660;7.082;2022-10-13T00:31:46;4.37;;;4.00;;
5085;SDS011;4715;51.660;7.082;2022-10-13T00:34:08;5.77;;;3.87;;
5085;SDS011;4715;51.660;7.082;2022-10-13T00:36:30;5.00;;;4.57;;
5085;SDS011;4715;51.660;7.082;2022-10-13T00:38:52;5.17;;;4.67;;
5085;SDS011;4715;51.660;7.082;2022-10-13T00:41:15;4.70;;;4.40;;
5085;SDS011;4715;51.660;7.082;2022-10-13T00:43:57;4.57;;;4.17;;
5085;SDS011;4715;51.660;7.082;2022-10-13T00:46:20;4.70;;;4.30;;
5085;SDS011;4715;51.660;7.082;2022-10-13T00:48:43;4.03;;;3.53;;
5085;SDS011;4715;51.660;7.082;2022-10-13T00:51:06;4.23;;;3.83;;
5085;SDS011;4715;51.660;7.082;2022-10-13T00:53:30;3.90;;;3.60;;
5085;SDS011;4715;51.660;7.082;2022-10-13T00:55:56;4.50;;;4.20;;
5085;SDS011;4715;51.660;7.082;2022-10-13T00:58:19;3.80;;;3.50;;
5085;SDS011;4715;51.660;7.082;2022-10-13T01:00:44;3.20;;;3.00;;
5085;SDS011;4715;51.660;7.082;2022-10-13T01:03:08;4.50;;;4.10;;
5085;SDS011;4715;51.660;7.082;2022-10-13T01:05:30;4.00;;;3.70;;
5085;SDS011;4715;51.660;7.082;2022-10-13T01:07:52;4.33;;;3.87;;
5085;SDS011;4715;51.660;7.082;2022-10-13T01:10:16;3.50;;;3.20;;
5085;SDS011;4715;51.660;7.082;2022-10-13T01:12:48;9.63;;;4.87;;
5085;SDS011;4715;51.660;7.082;2022-10-13T01:15:21;4.17;;;3.83;;
5085;SDS011;4715;51.660;7.082;2022-10-13T01:17:51;5.40;;;4.37;;
5085;SDS011;4715;51.660;7.082;2022-10-13T01:20:30;4.53;;;4.10;;
5085;SDS011;4715;51.660;7.082;2022-10-13T01:23:22;5.63;;;4.40;;
5085;SDS011;4715;51.660;7.082;2022-10-13T01:26:08;4.20;;;3.90;;
5085;SDS011;4715;51.660;7.082;2022-10-13T01:28:51;5.23;;;4.13;;
5085;SDS011;4715;51.660;7.082;2022-10-13T01:31:28;4.57;;;4.17;;
5085;SDS011;4715;51.660;7.082;2022-10-13T01:33:56;5.30;;;4.90;;
5085;SDS011;4715;51.660;7.082;2022-10-13T01:36:25;5.07;;;4.57;;
5085;SDS011;4715;51.660;7.082;2022-10-13T01:38:52;4.93;;;4.30;;
5085;SDS011;4715;51.660;7.082;2022-10-13T01:41:20;6.33;;;4.87;;
5085;SDS011;4715;51.660;7.082;2022-10-13T01:43:47;6.13;;;5.10;;
5085;SDS011;4715;51.660;7.082;2022-10-13T01:46:12;10.33;;;7.07;;
5085;SDS011;4715;51.660;7.082;2022-10-13T01:48:40;8.10;;;6.67;;
5085;SDS011;4715;51.660;7.082;2022-10-13T01:51:04;8.67;;;5.60;;
5085;SDS011;4715;51.660;7.082;2022-10-13T01:53:29;7.33;;;5.50;;
5085;SDS011;4715;51.660;7.082;2022-10-13T01:55:52;8.40;;;5.90;;
5085;SDS011;4715;51.660;7.082;2022-10-13T01:58:15;6.53;;;5.53;;
5085;SDS011;4715;51.660;7.082;2022-10-13T02:00:38;7.13;;;6.20;;
5085;SDS011;4715;51.660;7.082;2022-10-13T02:03:07;9.60;;;6.57;;
5085;SDS011;4715;51.660;7.082;2022-10-13T02:05:37;8.60;;;5.53;;
5085;SDS011;4715;51.660;7.082;2022-10-13T02:08:09;8.47;;;5.80;;
5085;SDS011;4715;51.660;7.082;2022-10-13T02:10:39;9.53;;;6.70;;
5085;SDS011;4715;51.660;7.082;2022-10-13T02:13:07;6.63;;;5.57;;
5085;SDS011;4715;51.660;7.082;2022-10-13T02:15:34;12.80;;;6.73;;
5085;SDS011;4715;51.660;7.082;2022-10-13T02:17:58;9.40;;;6.03;;
5085;SDS011;4715;51.660;7.082;2022-10-13T02:20:22;11.20;;;6.23;;
5085;SDS011;4715;51.660;7.082;2022-10-13T02:22:45;10.70;;;6.30;;
5085;SDS011;4715;51.660;7.082;2022-10-13T02:25:13;10.03;;;6.33;;
5085;SDS011;4715;51.660;7.082;2022-10-13T02:27:34;6.87;;;6.17;;
5085;SDS011;4715;51.660;7.082;2022-10-13T02:29:56;7.47;;;5.73;;
5085;SDS011;4715;51.660;7.082;2022-10-13T02:32:18;8.70;;;6.30;;
5085;SDS011;4715;51.660;7.082;2022-10-13T02:34:40;9.27;;;6.80;;
5085;SDS011;4715;51.660;7.082;2022-10-13T02:37:02;10.03;;;6.23;;
5085;SDS011;4715;51.660;7.082;2022-10-13T02:39:25;8.77;;;7.67;;
5085;SDS011;4715;51.660;7.082;2022-10-13T02:41:47;7.40;;;6.60;;
5085;SDS011;4715;51.660;7.082;2022-10-13T02:44:09;7.07;;;5.93;;
5085;SDS011;4715;51.660;7.082;2022-10-13T02:46:31;15.83;;;6.90;;
5085;SDS011;4715;51.660;7.082;2022-10-13T02:48:53;8.13;;;6.40;;
5085;SDS011;4715;51.660;7.082;2022-10-13T02:51:15;6.57;;;5.30;;
5085;SDS011;4715;51.660;7.082;2022-10-13T02:53:37;11.37;;;5.63;;
5085;SDS011;4715;51.660;7.082;2022-10-13T02:56:01;6.43;;;5.70;;
5085;SDS011;4715;51.660;7.082;2022-10-13T02:58:22;5.10;;;4.70;;
5085;SDS011;4715;51.660;7.082;2022-10-13T03:00:44;6.20;;;5.60;;
5085;SDS011;4715;51.660;7.082;2022-10-13T03:03:06;6.23;;;4.93;;
5085;SDS011;4715;51.660;7.082;2022-10-13T03:05:28;5.47;;;4.97;;
5085;SDS011;4715;51.660;7.082;2022-10-13T03:07:50;4.40;;;4.10;;
5085;SDS011;4715;51.660;7.082;2022-10-13T03:10:12;4.80;;;4.40;;
5085;SDS011;4715;51.660;7.082;2022-10-13T03:12:35;6.60;;;4.90;;
5085;SDS011;4715;51.660;7.082;2022-10-13T03:14:57;5.07;;;4.67;;
5085;SDS011;4715;51.660;7.082;2022-10-13T03:17:18;4.90;;;4.50;;
5085;SDS011;4715;51.660;7.082;2022-10-13T03:19:40;6.37;;;5.00;;
5085;SDS011;4715;51.660;7.082;2022-10-13T03:22:02;7.23;;;5.27;;
5085;SDS011;4715;51.660;7.082;2022-10-13T03:24:24;5.87;;;4.30;;
5085;SDS011;4715;51.660;7.082;2022-10-13T03:26:46;5.50;;;5.00;;
5085;SDS011;4715;51.660;7.082;2022-10-13T03:29:11;6.10;;;5.03;;
5085;SDS011;4715;51.660;7.082;2022-10-13T03:31:33;4.50;;;4.20;;
5085;SDS011;4715;51.660;7.082;2022-10-13T03:33:55;8.77;;;4.50;;
5085;SDS011;4715;51.660;7.082;2022-10-13T03:36:17;6.90;;;5.17;;
5085;SDS011;4715;51.660;7.082;2022-10-13T03:38:39;5.37;;;4.87;;
5085;SDS011;4715;51.660;7.082;2022-10-13T03:41:03;6.43;;;5.70;;
5085;SDS011;4715;51.660;7.082;2022-10-13T03:43:25;6.40;;;4.00;;
5085;SDS011;4715;51.660;7.082;2022-10-13T03:45:54;5.47;;;4.80;;
5085;SDS011;4715;51.660;7.082;2022-10-13T03:48:16;4.63;;;4.03;;
5085;SDS011;4715;51.660;7.082;2022-10-13T03:50:38;4.40;;;4.00;;
5085;SDS011;4715;51.660;7.082;2022-10-13T03:53:00;7.57;;;3.70;;
5085;SDS011;4715;51.660;7.082;2022-10-13T03:55:22;4.30;;;3.90;;
5085;SDS011;4715;51.660;7.082;2022-10-13T03:57:44;4.00;;;3.70;;
5085;SDS011;4715;51.660;7.082;2022-10-13T04:00:06;5.03;;;4.57;;
5085;SDS011;4715;51.660;7.082;2022-10-13T04:02:31;3.53;;;3.23;;
5085;SDS011;4715;51.660;7.082;2022-10-13T04:04:52;3.77;;;3.57;;
5085;SDS011;4715;51.660;7.082;2022-10-13T04:07:14;3.33;;;3.13;;
5085;SDS011;4715;51.660;7.082;2022-10-13T04:09:36;5.00;;;3.30;;
5085;SDS011;4715;51.660;7.082;2022-10-13T04:11:58;4.10;;;3.70;;
5085;SDS011;4715;51.660;7.082;2022-10-13T04:14:20;4.67;;;4.27;;
5085;SDS011;4715;51.660;7.082;2022-10-13T04:16:42;3.87;;;3.57;;
5085;SDS011;4715;51.660;7.082;2022-10-13T04:19:05;3.57;;;3.27;;
5085;SDS011;4715;51.660;7.082;2022-10-13T04:21:27;3.63;;;3.20;;
5085;SDS011;4715;51.660;7.082;2022-10-13T04:23:52;5.23;;;3.57;;
5085;SDS011;4715;51.660;7.082;2022-10-13T04:26:17;3.70;;;3.40;;
5085;SDS011;4715;51.660;7.082;2022-10-13T04:28:40;4.07;;;3.77;;
5085;SDS011;4715;51.660;7.082;2022-10-13T04:31:02;4.37;;;3.97;;
5085;SDS011;4715;51.660;7.082;2022-10-13T04:33:24;4.37;;;3.80;;
5085;SDS011;4715;51.660;7.082;2022-10-13T04:35:47;4.60;;;4.13;;
5085;SDS011;4715;51.660;7.082;2022-10-13T04:38:09;4.53;;;4.13;;
5085;SDS011;4715;51.660;7.082;2022-10-13T04:40:33;4.30;;;3.90;;
5085;SDS011;4715;51.660;7.082;2022-10-13T04:43:15;10.00;;;5.13;;
5085;SDS011;4715;51.660;7.082;2022-10-13T04:45:37;3.80;;;3.50;;
5085;SDS011;4715;51.660;7.082;2022-10-13T04:47:59;4.70;;;4.30;;
5085;SDS011;4715;51.660;7.082;2022-10-13T04:50:21;5.17;;;4.73;;
5085;SDS011;4715;51.660;7.082;2022-10-13T04:52:44;10.40;;;4.60;;
5085;SDS011;4715;51.660;7.082;2022-10-13T04:55:06;6.20;;;4.30;;
5085;SDS011;4715;51.660;7.082;2022-10-13T04:57:29;5.17;;;4.03;;
5085;SDS011;4715;51.660;7.082;2022-10-13T04:59:51;4.57;;;4.10;;
5085;SDS011;4715;51.660;7.082;2022-10-13T05:02:12;4.40;;;4.00;;
5085;SDS011;4715;51.660;7.082;2022-10-13T05:04:34;8.37;;;5.00;;
5085;SDS011;4715;51.660;7.082;2022-10-13T05:06:56;6.47;;;5.83;;
5085;SDS011;4715;51.660;7.082;2022-10-13T05:09:20;5.23;;;4.53;;
5085;SDS011;4715;51.660;7.082;2022-10-13T05:11:42;7.50;;;4.53;;
5085;SDS011;4715;51.660;7.082;2022-10-13T05:14:03;6.70;;;4.47;;
5085;SDS011;4715;51.660;7.082;2022-10-13T05:16:25;5.00;;;4.40;;
5085;SDS011;4715;51.660;7.082;2022-10-13T05:18:50;6.40;;;4.60;;
5085;SDS011;4715;51.660;7.082;2022-10-13T05:21:13;4.97;;;4.47;;
5085;SDS011;4715;51.660;7.082;2022-10-13T05:23:37;4.07;;;3.77;;
5085;SDS011;4715;51.660;7.082;2022-10-13T05:26:03;7.60;;;4.73;;
5085;SDS011;4715;51.660;7.082;2022-10-13T05:28:25;4.70;;;4.10;;
5085;SDS011;4715;51.660;7.082;2022-10-13T05:30:47;8.73;;;4.47;;
5085;SDS011;4715;51.660;7.082;2022-10-13T05:33:09;7.60;;;6.50;;
5085;SDS011;4715;51.660;7.082;2022-10-13T05:35:31;6.87;;;5.43;;
5085;SDS011;4715;51.660;7.082;2022-10-13T05:37:53;6.60;;;5.40;;
5085;SDS011;4715;51.660;7.082;2022-10-13T05:40:15;6.50;;;5.80;;
5085;SDS011;4715;51.660;7.082;2022-10-13T05:42:38;5.17;;;4.63;;
5085;SDS011;4715;51.660;7.082;2022-10-13T05:45:01;5.30;;;4.97;;
5085;SDS011;4715;51.660;7.082;2022-10-13T05:47:24;6.70;;;6.00;;
5085;SDS011;4715;51.660;7.082;2022-10-13T05:49:47;6.60;;;5.17;;
5085;SDS011;4715;51.660;7.082;2022-10-13T05:52:09;5.90;;;5.27;;
5085;SDS011;4715;51.660;7.082;2022-10-13T05:54:33;6.47;;;5.90;;
5085;SDS011;4715;51.660;7.082;2022-10-13T05:56:59;12.53;;;5.67;;
5085;SDS011;4715;51.660;7.082;2022-10-13T05:59:26;6.90;;;6.20;;
5085;SDS011;4715;51.660;7.082;2022-10-13T06:01:50;6.27;;;5.60;;
5085;SDS011;4715;51.660;7.082;2022-10-13T06:04:14;6.67;;;5.73;;
5085;SDS011;4715;51.660;7.082;2022-10-13T06:06:39;7.83;;;6.50;;
5085;SDS011;4715;51.660;7.082;2022-10-13T06:09:01;8.90;;;6.47;;
5085;SDS011;4715;51.660;7.082;2022-10-13T06:11:23;7.90;;;5.10;;
5085;SDS011;4715;51.660;7.082;2022-10-13T06:13:45;7.20;;;6.27;;
5085;SDS011;4715;51.660;7.082;2022-10-13T06:16:08;4.97;;;4.47;;
5085;SDS011;4715;51.660;7.082;2022-10-13T06:18:30;6.90;;;6.10;;
5085;SDS011;4715;51.660;7.082;2022-10-13T06:20:52;7.13;;;5.40;;
5085;SDS011;4715;51.660;7.082;2022-10-13T06:23:14;8.83;;;6.00;;
5085;SDS011;4715;51.660;7.082;2022-10-13T06:25:36;6.17;;;5.47;;
5085;SDS011;4715;51.660;7.082;2022-10-13T06:27:58;5.17;;;4.73;;
5085;SDS011;4715;51.660;7.082;2022-10-13T06:30:20;5.40;;;4.90;;
5085;SDS011;4715;51.660;7.082;2022-10-13T06:32:43;9.97;;;5.00;;
5085;SDS011;4715;51.660;7.082;2022-10-13T06:35:05;9.37;;;5.93;;
5085;SDS011;4715;51.660;7.082;2022-10-13T06:37:28;5.70;;;5.20;;
5085;SDS011;4715;51.660;7.082;2022-10-13T06:39:50;7.83;;;5.37;;
5085;SDS011;4715;51.660;7.082;2022-10-13T06:42:12;7.93;;;5.60;;
5085;SDS011;4715;51.660;7.082;2022-10-13T06:44:33;6.73;;;5.50;;
5085;SDS011;4715;51.660;7.082;2022-10-13T06:46:55;5.87;;;5.27;;
5085;SDS011;4715;51.660;7.082;2022-10-13T06:49:19;5.73;;;4.40;;
5085;SDS011;4715;51.660;7.082;2022-10-13T06:51:41;4.10;;;3.80;;
5085;SDS011;4715;51.660;7.082;2022-10-13T06:54:02;4.97;;;4.50;;
5085;SDS011;4715;51.660;7.082;2022-10-13T06:56:24;6.03;;;5.40;;
5085;SDS011;4715;51.660;7.082;2022-10-13T06:58:46;5.30;;;4.90;;
5085;SDS011;4715;51.660;7.082;2022-10-13T07:01:10;8.27;;;5.40;;
5085;SDS011;4715;51.660;7.082;2022-10-13T07:03:32;6.13;;;4.33;;
5085;SDS011;4715;51.660;7.082;2022-10-13T07:06:00;8.17;;;6.10;;
5085;SDS011;4715;51.660;7.082;2022-10-13T07:08:22;7.30;;;4.57;;
5085;SDS011;4715;51.660;7.082;2022-10-13T07:10:44;5.83;;;5.20;;
5085;SDS011;4715;51.660;7.082;2022-10-13T07:13:06;4.27;;;3.87;;
5085;SDS011;4715;51.660;7.082;2022-10-13T07:15:28;4.33;;;3.93;;
5085;SDS011;4715;51.660;7.082;2022-10-13T07:17:50;5.37;;;4.87;;
5085;SDS011;4715;51.660;7.082;2022-10-13T07:20:14;4.47;;;3.57;;
5085;SDS011;4715;51.660;7.082;2022-10-13T07:22:37;6.43;;;4.30;;
5085;SDS011;4715;51.660;7.082;2022-10-13T07:24:59;5.70;;;5.13;;
5085;SDS011;4715;51.660;7.082;2022-10-13T07:27:21;6.37;;;5.67;;
5085;SDS011;4715;51.660;7.082;2022-10-13T07:29:43;7.23;;;6.00;;
5085;SDS011;4715;51.660;7.082;2022-10-13T07:32:05;6.67;;;5.53;;
5085;SDS011;4715;51.660;7.082;2022-10-13T07:34:27;6.80;;;5.83;;
5085;SDS011;4715;51.660;7.082;2022-10-13T07:36:49;7.33;;;5.60;;
5085;SDS011;4715;51.660;7.082;2022-10-13T07:39:13;10.10;;;6.10;;
5085;SDS011;4715;51.660;7.082;2022-10-13T07:41:35;6.70;;;5.40;;
5085;SDS011;4715;51.660;7.082;2022-10-13T07:43:57;5.93;;;4.80;;
5085;SDS011;4715;51.660;7.082;2022-10-13T07:46:19;6.10;;;5.50;;
5085;SDS011;4715;51.660;7.082;2022-10-13T07:48:41;4.33;;;3.97;;
5085;SDS011;4715;51.660;7.082;2022-10-13T07:51:03;8.43;;;4.30;;
5085;SDS011;4715;51.660;7.082;2022-10-13T07:53:26;9.10;;;6.57;;
5085;SDS011;4715;51.660;7.082;2022-10-13T07:55:49;6.23;;;5.60;;
5085;SDS011;4715;51.660;7.082;2022-10-13T07:58:11;6.97;;;6.30;;
5085;SDS011;4715;51.660;7.082;2022-10-13T08:00:34;8.10;;;5.27;;
5085;SDS011;4715;51.660;7.082;2022-10-13T08:02:55;6.57;;;5.40;;
5085;SDS011;4715;51.660;7.082;2022-10-13T08:05:17;8.13;;;4.93;;
5085;SDS011;4715;51.660;7.082;2022-10-13T08:07:39;6.90;;;5.40;;
5085;SDS011;4715;51.660;7.082;2022-10-13T08:10:01;6.23;;;5.63;;
5085;SDS011;4715;51.660;7.082;2022-10-13T08:12:25;9.57;;;6.30;;
5085;SDS011;4715;51.660;7.082;2022-10-13T08:14:49;7.47;;;6.77;;
5085;SDS011;4715;51.660;7.082;2022-10-13T08:17:10;8.73;;;6.10;;
5085;SDS011;4715;51.660;7.082;2022-10-13T08:19:32;9.60;;;6.57;;
5085;SDS011;4715;51.660;7.082;2022-10-13T08:21:54;8.80;;;6.87;;
5085;SDS011;4715;51.660;7.082;2022-10-13T08:24:17;9.00;;;6.40;;
5085;SDS011;4715;51.660;7.082;2022-10-13T08:26:40;8.13;;;7.20;;
5085;SDS011;4715;51.660;7.082;2022-10-13T08:29:05;7.43;;;6.47;;
5085;SDS011;4715;51.660;7.082;2022-10-13T08:31:27;8.10;;;6.33;;
5085;SDS011;4715;51.660;7.082;2022-10-13T08:33:49;8.13;;;6.90;;
5085;SDS011;4715;51.660;7.082;2022-10-13T08:36:11;9.27;;;6.53;;
5085;SDS011;4715;51.660;7.082;2022-10-13T08:38:34;9.07;;;7.43;;
5085;SDS011;4715;51.660;7.082;2022-10-13T08:40:56;10.63;;;7.23;;
5085;SDS011;4715;51.660;7.082;2022-10-13T08:43:18;10.27;;;8.03;;
5085;SDS011;4715;51.660;7.082;2022-10-13T08:45:44;10.60;;;7.50;;
5085;SDS011;4715;51.660;7.082;2022-10-13T08:48:09;7.10;;;6.37;;
5085;SDS011;4715;51.660;7.082;2022-10-13T08:50:35;8.47;;;6.50;;
5085;SDS011;4715;51.660;7.082;2022-10-13T08:53:01;10.67;;;7.33;;
5085;SDS011;4715;51.660;7.082;2022-10-13T08:55:29;11.97;;;7.90;;
5085;SDS011;4715;51.660;7.082;2022-10-13T08:57:55;9.63;;;7.60;;
5085;SDS011;4715;51.660;7.082;2022-10-13T09:00:17;10.47;;;7.67;;
5085;SDS011;4715;51.660;7.082;2022-10-13T09:02:41;10.43;;;7.63;;
5085;SDS011;4715;51.660;7.082;2022-10-13T09:05:04;11.20;;;7.57;;
5085;SDS011;4715;51.660;7.082;2022-10-13T09:07:33;15.33;;;7.83;;
5085;SDS011;4715;51.660;7.082;2022-10-13T09:09:57;9.00;;;7.13;;
5085;SDS011;4715;51.660;7.082;2022-10-13T09:12:19;8.43;;;6.00;;
5085;SDS011;4715;51.660;7.082;2022-10-13T09:14:54;8.37;;;5.67;;
5085;SDS011;4715;51.660;7.082;2022-10-13T09:17:18;12.73;;;5.50;;
5085;SDS011;4715;51.660;7.082;2022-10-13T09:19:44;9.27;;;7.20;;
5085;SDS011;4715;51.660;7.082;2022-10-13T09:22:22;13.13;;;8.47;;
5085;SDS011;4715;51.660;7.082;2022-10-13T09:24:45;13.70;;;8.17;;
5085;SDS011;4715;51.660;7.082;2022-10-13T09:27:10;14.23;;;8.53;;
5085;SDS011;4715;51.660;7.082;2022-10-13T09:29:35;8.50;;;6.30;;
5085;SDS011;4715;51.660;7.082;2022-10-13T09:32:06;7.93;;;6.73;;
5085;SDS011;4715;51.660;7.082;2022-10-13T09:34:36;9.70;;;6.40;;
5085;SDS011;4715;51.660;7.082;2022-10-13T09:37:00;6.03;;;5.03;;
5085;SDS011;4715;51.660;7.082;2022-10-13T09:39:23;9.40;;;5.80;;
5085;SDS011;4715;51.660;7.082;2022-10-13T09:41:46;8.13;;;6.23;;
5085;SDS011;4715;51.660;7.082;2022-10-13T09:44:10;6.83;;;5.80;;
5085;SDS011;4715;51.660;7.082;2022-10-13T09:46:35;7.80;;;5.10;;
5085;SDS011;4715;51.660;7.082;2022-10-13T09:49:00;5.57;;;5.00;;
5085;SDS011;4715;51.660;7.082;2022-10-13T09:51:28;7.67;;;5.60;;
5085;SDS011;4715;51.660;7.082;2022-10-13T09:53:55;4.27;;;3.87;;
5085;SDS011;4715;51.660;7.082;2022-10-13T09:56:18;6.30;;;5.70;;
5085;SDS011;4715;51.660;7.082;2022-10-13T09:58:44;5.83;;;5.23;;
5085;SDS011;4715;51.660;7.082;2022-10-13T10:01:15;11.43;;;5.60;;
5085;SDS011;4715;51.660;7.082;2022-10-13T10:03:42;7.43;;;5.43;;
5085;SDS011;4715;51.660;7.082;2022-10-13T10:06:05;6.67;;;5.97;;
5085;SDS011;4715;51.660;7.082;2022-10-13T10:08:32;6.23;;;5.63;;
5085;SDS011;4715;51.660;7.082;2022-10-13T10:11:01;5.20;;;4.70;;
5085;SDS011;4715;51.660;7.082;2022-10-13T10:13:25;9.60;;;6.33;;
5085;SDS011;4715;51.660;7.082;2022-10-13T10:15:49;8.30;;;5.80;;
5085;SDS011;4715;51.660;7.082;2022-10-13T10:18:15;9.07;;;6.67;;
5085;SDS011;4715;51.660;7.082;2022-10-13T10:20:45;7.73;;;7.03;;
5085;SDS011;4715;51.660;7.082;2022-10-13T10:23:16;9.23;;;5.70;;
5085;SDS011;4715;51.660;7.082;2022-10-13T10:25:43;7.57;;;6.77;;
5085;SDS011;4715;51.660;7.082;2022-10-13T10:28:13;13.97;;;7.47;;
5085;SDS011;4715;51.660;7.082;2022-10-13T10:30:56;10.63;;;6.90;;
5085;SDS011;4715;51.660;7.082;2022-10-13T10:33:38;11.90;;;6.27;;
5085;SDS011;4715;51.660;7.082;2022-10-13T10:36:07;17.37;;;5.70;;
5085;SDS011;4715;51.660;7.082;2022-10-13T10:38:37;8.83;;;6.73;;
5085;SDS011;4715;51.660;7.082;2022-10-13T10:41:07;9.07;;;6.47;;
5085;SDS011;4715;51.660;7.082;2022-10-13T10:43:47;10.80;;;5.43;;
5085;SDS011;4715;51.660;7.082;2022-10-13T10:46:14;7.30;;;5.77;;
5085;SDS011;4715;51.660;7.082;2022-10-13T10:48:38;12.60;;;6.33;;
5085;SDS011;4715;51.660;7.082;2022-10-13T10:51:00;7.00;;;5.97;;
5085;SDS011;4715;51.660;7.082;2022-10-13T10:53:28;7.47;;;6.07;;
5085;SDS011;4715;51.660;7.082;2022-10-13T10:55:54;8.73;;;6.30;;
5085;SDS011;4715;51.660;7.082;2022-10-13T10:58:25;6.50;;;5.90;;
5085;SDS011;4715;51.660;7.082;2022-10-13T11:00:52;11.60;;;6.20;;
5085;SDS011;4715;51.660;7.082;2022-10-13T11:03:22;6.13;;;5.47;;
5085;SDS011;4715;51.660;7.082;2022-10-13T11:06:00;6.90;;;6.27;;
5085;SDS011;4715;51.660;7.082;2022-10-13T11:08:25;6.53;;;5.20;;
5085;SDS011;4715;51.660;7.082;2022-10-13T11:10:47;14.27;;;6.13;;
5085;SDS011;4715;51.660;7.082;2022-10-13T11:13:50;13.03;;;5.30;;
5085;SDS011;4715;51.660;7.082;2022-10-13T11:16:26;12.80;;;7.23;;
5085;SDS011;4715;51.660;7.082;2022-10-13T11:18:57;6.50;;;5.40;;
5085;SDS011;4715;51.660;7.082;2022-10-13T11:21:39;6.53;;;5.90;;
5085;SDS011;4715;51.660;7.082;2022-10-13T11:27:48;5.67;;;5.03;;
5085;SDS011;4715;51.660;7.082;2022-10-13T11:35:53;8.53;;;5.87;;
5085;SDS011;4715;51.660;7.082;2022-10-13T11:38:20;7.60;;;5.27;;
5085;SDS011;4715;51.660;7.082;2022-10-13T11:41:02;6.60;;;5.00;;
5085;SDS011;4715;51.660;7.082;2022-10-13T11:43:35;8.33;;;6.00;;
5085;SDS011;4715;51.660;7.082;2022-10-13T11:46:12;7.47;;;5.23;;
5085;SDS011;4715;51.660;7.082;2022-10-13T11:52:05;8.60;;;6.23;;
5085;SDS011;4715;51.660;7.082;2022-10-13T11:55:00;9.53;;;6.47;;
5085;SDS011;4715;51.660;7.082;2022-10-13T11:57:26;10.50;;;4.30;;
5085;SDS011;4715;51.660;7.082;2022-10-13T11:59:49;5.47;;;4.10;;
5085;SDS011;4715;51.660;7.082;2022-10-13T12:02:16;8.97;;;4.80;;
5085;SDS011;4715;51.660;7.082;2022-10-13T12:04:38;5.77;;;5.03;;
5085;SDS011;4715;51.660;7.082;2022-10-13T12:07:01;5.50;;;4.90;;
5085;SDS011;4715;51.660;7.082;2022-10-13T12:09:25;12.50;;;5.57;;
5085;SDS011;4715;51.660;7.082;2022-10-13T12:11:54;6.07;;;5.47;;
5085;SDS011;4715;51.660;7.082;2022-10-13T12:14:19;6.83;;;6.00;;
5085;SDS011;4715;51.660;7.082;2022-10-13T12:16:50;7.23;;;5.77;;
5085;SDS011;4715;51.660;7.082;2022-10-13T12:19:19;8.03;;;6.07;;
5085;SDS011;4715;51.660;7.082;2022-10-13T12:21:48;9.70;;;4.80;;
5085;SDS011;4715;51.660;7.082;2022-10-13T12:24:13;8.37;;;7.10;;
5085;SDS011;4715;51.660;7.082;2022-10-13T12:26:37;7.57;;;6.77;;
5085;SDS011;4715;51.660;7.082;2022-10-13T12:29:00;6.10;;;5.20;;
5085;SDS011;4715;51.660;7.082;2022-10-13T12:31:23;8.80;;;6.07;;
5085;SDS011;4715;51.660;7.082;2022-10-13T12:33:51;6.40;;;5.00;;
5085;SDS011;4715;51.660;7.082;2022-10-13T12:36:17;8.00;;;5.47;;
5085;SDS011;4715;51.660;7.082;2022-10-13T12:38:42;12.20;;;5.63;;
5085;SDS011;4715;51.660;7.082;2022-10-13T12:41:08;16.27;;;5.17;;
5085;SDS011;4715;51.660;7.082;2022-10-13T12:43:35;8.43;;;5.80;;
5085;SDS011;4715;51.660;7.082;2022-10-13T12:45:57;6.77;;;5.00;;
5085;SDS011;4715;51.660;7.082;2022-10-13T12:48:29;6.80;;;5.13;;
5085;SDS011;4715;51.660;7.082;2022-10-13T12:50:52;7.87;;;5.10;;
5085;SDS011;4715;51.660;7.082;2022-10-13T12:53:16;13.77;;;8.53;;
5085;SDS011;4715;51.660;7.082;2022-10-13T12:55:49;5.93;;;5.40;;
5085;SDS011;4715;51.660;7.082;2022-10-13T12:58:18;8.60;;;5.87;;
5085;SDS011;4715;51.660;7.082;2022-10-13T13:00:43;8.30;;;5.70;;
5085;SDS011;4715;51.660;7.082;2022-10-13T13:03:17;8.63;;;5.87;;
5085;SDS011;4715;51.660;7.082;2022-10-13T13:05:43;15.50;;;7.00;;
5085;SDS011;4715;51.660;7.082;2022-10-13T13:08:18;8.07;;;5.57;;
5085;SDS011;4715;51.660;7.082;2022-10-13T13:10:52;7.27;;;6.20;;
5085;SDS011;4715;51.660;7.082;2022-10-13T13:13:14;10.10;;;6.37;;
5085;SDS011;4715;51.660;7.082;2022-10-13T13:15:42;6.53;;;5.93;;
5085;SDS011;4715;51.660;7.082;2022-10-13T13:18:28;7.87;;;5.93;;
5085;SDS011;4715;51.660;7.082;2022-10-13T13:20:55;7.17;;;5.20;;
5085;SDS011;4715;51.660;7.082;2022-10-13T13:23:18;7.43;;;5.43;;
5085;SDS011;4715;51.660;7.082;2022-10-13T13:25:49;5.87;;;4.57;;
5085;SDS011;4715;51.660;7.082;2022-10-13T13:28:20;7.47;;;4.80;;
5085;SDS011;4715;51.660;7.082;2022-10-13T13:30:42;6.70;;;5.13;;
5085;SDS011;4715;51.660;7.082;2022-10-13T13:33:04;7.27;;;6.40;;
5085;SDS011;4715;51.660;7.082;2022-10-13T13:35:26;4.93;;;4.40;;
5085;SDS011;4715;51.660;7.082;2022-10-13T13:37:48;6.00;;;5.37;;
5085;SDS011;4715;51.660;7.082;2022-10-13T13:40:13;5.47;;;4.97;;
5085;SDS011;4715;51.660;7.082;2022-10-13T13:42:37;7.43;;;4.70;;
5085;SDS011;4715;51.660;7.082;2022-10-13T13:44:59;7.10;;;6.37;;
5085;SDS011;4715;51.660;7.082;2022-10-13T13:47:22;9.70;;;4.97;;
5085;SDS011;4715;51.660;7.082;2022-10-13T13:49:45;6.30;;;5.20;;
5085;SDS011;4715;51.660;7.082;2022-10-13T13:52:08;8.47;;;4.90;;
5085;SDS011;4715;51.660;7.082;2022-10-13T13:54:30;8.27;;;5.60;;
5085;SDS011;4715;51.660;7.082;2022-10-13T13:56:52;4.97;;;4.50;;
5085;SDS011;4715;51.660;7.082;2022-10-13T13:59:15;4.50;;;4.03;;
5085;SDS011;4715;51.660;7.082;2022-10-13T14:01:37;6.23;;;4.80;;
5085;SDS011;4715;51.660;7.082;2022-10-13T14:03:59;5.30;;;4.17;;
5085;SDS011;4715;51.660;7.082;2022-10-13T14:06:22;4.20;;;3.80;;
5085;SDS011;4715;51.660;7.082;2022-10-13T14:08:45;3.67;;;3.33;;
5085;SDS011;4715;51.660;7.082;2022-10-13T14:11:07;4.17;;;3.87;;
5085;SDS011;4715;51.660;7.082;2022-10-13T14:13:29;4.20;;;3.77;;
5085;SDS011;4715;51.660;7.082;2022-10-13T14:15:57;4.50;;;4.10;;
5085;SDS011;4715;51.660;7.082;2022-10-13T14:18:20;3.90;;;3.23;;
5085;SDS011;4715;51.660;7.082;2022-10-13T14:20:43;3.37;;;3.07;;
5085;SDS011;4715;51.660;7.082;2022-10-13T14:23:05;3.93;;;3.50;;
5085;SDS011;4715;51.660;7.082;2022-10-13T14:25:28;3.47;;;2.70;;
5085;SDS011;4715;51.660;7.082;2022-10-13T14:27:49;4.43;;;4.00;;
5085;SDS011;4715;51.660;7.082;2022-10-13T14:30:12;4.97;;;3.37;;
5085;SDS011;4715;51.660;7.082;2022-10-13T14:32:36;7.77;;;3.80;;
5085;SDS011;4715;51.660;7.082;2022-10-13T14:34:58;4.03;;;3.53;;
5085;SDS011;4715;51.660;7.082;2022-10-13T14:37:20;3.43;;;3.23;;
5085;SDS011;4715;51.660;7.082;2022-10-13T14:39:42;3.83;;;3.53;;
5085;SDS011;4715;51.660;7.082;2022-10-13T14:42:03;4.20;;;3.90;;
5085;SDS011;4715;51.660;7.082;2022-10-13T14:44:25;5.10;;;3.30;;
5085;SDS011;4715;51.660;7.082;2022-10-13T14:46:47;5.20;;;3.47;;
5085;SDS011;4715;51.660;7.082;2022-10-13T14:49:11;4.37;;;3.30;;
5085;SDS011;4715;51.660;7.082;2022-10-13T14:51:34;3.53;;;3.33;;
5085;SDS011;4715;51.660;7.082;2022-10-13T14:53:56;4.30;;;3.50;;
5085;SDS011;4715;51.660;7.082;2022-10-13T14:56:19;3.70;;;3.40;;
5085;SDS011;4715;51.660;7.082;2022-10-13T14:58:42;4.10;;;3.70;;
5085;SDS011;4715;51.660;7.082;2022-10-13T15:01:04;3.83;;;3.57;;
5085;SDS011;4715;51.660;7.082;2022-10-13T15:03:26;4.30;;;4.00;;
5085;SDS011;4715;51.660;7.082;2022-10-13T15:05:49;6.17;;;4.10;;
5085;SDS011;4715;51.660;7.082;2022-10-13T15:08:11;4.40;;;4.00;;
5085;SDS011;4715;51.660;7.082;2022-10-13T15:10:33;4.73;;;4.33;;
5085;SDS011;4715;51.660;7.082;2022-10-13T15:12:55;3.70;;;3.40;;